Time;durP1;ratioP1;P1;durP2;ratioP2;P2;SDS_P1;SDS_P2;PMS_P1;PMS_P2;Temp;Humidity;BMP_temperature;BMP_pressure;BME280_temperature;BME280_humidity;BME280_pressure;Samples;Min_cycle;Max_cycle;Signal;HPM_P1;HPM_P2
2021/05/08 00:00:05;;;;;;;7.18;0.93;;;;;;;;;;5052763;28;20028;-71
2021/05/08 00:02:32;;;;;;;5.55;1.60;;;;;;;;;;5051327;28;20074;-70
2021/05/08 00:04:59;;;;;;;6.60;1.08;;;;;;;;;;5051840;28;20025;-71
2021/05/08 00:07:26;;;;;;;2.90;1.00;;;;;;;;;;5050060;28;20484;-71
2021/05/08 00:09:54;;;;;;;4.78;1.45;;;;;;;;;;5052543;28;20048;-71
2021/05/08 00:12:21;;;;;;;2.67;0.80;;;;;;;;;;5039536;28;20025;-71
2021/05/08 00:14:48;;;;;;;3.40;0.93;;;;;;;;;;5050395;28;20060;-71
2021/05/08 00:17:15;;;;;;;10.48;1.35;;;;;;;;;;5050336;28;20055;-70
2021/05/08 00:19:42;;;;;;;3.78;0.90;;;;;;;;;;5050018;28;20072;-71
2021/05/08 00:22:09;;;;;;;2.78;1.35;;;;;;;;;;5035454;28;20025;-71
2021/05/08 00:24:36;;;;;;;3.83;0.68;;;;;;;;;;5049948;28;20108;-71
2021/05/08 00:27:03;;;;;;;2.83;0.60;;;;;;;;;;5052938;28;20025;-70
2021/05/08 00:29:30;;;;;;;2.22;0.65;;;;;;;;;;5051144;28;20028;-71
2021/05/08 00:31:57;;;;;;;1.80;0.68;;;;;;;;;;5064379;28;20021;-71
2021/05/08 00:34:25;;;;;;;3.20;0.73;;;;;;;;;;5056610;28;20041;-70
2021/05/08 00:36:52;;;;;;;6.35;1.02;;;;;;;;;;5047744;28;20052;-70
2021/05/08 00:39:19;;;;;;;2.72;0.93;;;;;;;;;;5039046;28;20155;-71
2021/05/08 00:41:46;;;;;;;2.45;0.85;;;;;;;;;;5051364;28;20025;-71
2021/05/08 00:44:14;;;;;;;4.20;0.63;;;;;;;;;;5051303;28;20047;-71
2021/05/08 00:46:41;;;;;;;1.63;0.60;;;;;;;;;;5052279;28;20389;-71
2021/05/08 00:49:08;;;;;;;4.78;0.80;;;;;;;;;;5042447;28;20498;-72
2021/05/08 00:51:37;;;;;;;7.22;1.00;;;;;;;;;;5047337;28;20029;-68
2021/05/08 00:54:04;;;;;;;5.07;1.67;;;;;;;;;;5044062;28;20025;-68
2021/05/08 00:56:31;;;;;;;2.25;0.80;;;;;;;;;;5040516;28;20481;-70
2021/05/08 00:58:58;;;;;;;8.40;1.75;;;;;;;;;;5042278;28;20036;-71
2021/05/08 01:01:25;;;;;;;5.88;2.05;;;;;;;;;;5044397;28;20027;-71
2021/05/08 01:03:52;;;;;;;3.80;0.60;;;;;;;;;;5040985;28;20021;-71
2021/05/08 01:06:20;;;;;;;3.33;0.90;;;;;;;;;;5043335;28;20036;-71
2021/05/08 01:08:47;;;;;;;8.90;0.90;;;;;;;;;;5040129;28;20087;-70
2021/05/08 01:11:14;;;;;;;5.53;0.60;;;;;;;;;;5039907;28;20091;-71
2021/05/08 01:13:41;;;;;;;3.80;0.88;;;;;;;;;;5043107;28;20087;-70
2021/05/08 01:16:08;;;;;;;6.32;0.68;;;;;;;;;;5046637;28;20441;-71
2021/05/08 01:18:35;;;;;;;1.80;0.73;;;;;;;;;;5049645;28;20025;-71
2021/05/08 01:21:03;;;;;;;3.13;0.75;;;;;;;;;;5050157;28;20184;-71
2021/05/08 01:23:30;;;;;;;2.00;0.93;;;;;;;;;;5050534;28;20021;-71
2021/05/08 01:25:57;;;;;;;2.60;0.40;;;;;;;;;;5050532;28;20392;-70
2021/05/08 01:28:27;;;;;;;3.72;0.65;;;;;;;;;;5044716;28;20022;-70
2021/05/08 01:30:54;;;;;;;2.58;0.45;;;;;;;;;;5049715;28;20110;-71
2021/05/08 01:33:21;;;;;;;2.17;0.65;;;;;;;;;;5052032;28;20102;-70
2021/05/08 01:35:48;;;;;;;5.47;0.70;;;;;;;;;;5051392;28;20608;-70
2021/05/08 01:38:16;;;;;;;2.30;0.88;;;;;;;;;;5036865;28;20040;-70
2021/05/08 01:40:43;;;;;;;2.28;0.60;;;;;;;;;;5052024;28;20060;-71
2021/05/08 01:43:10;;;;;;;1.33;0.63;;;;;;;;;;5050632;28;20032;-71
2021/05/08 01:45:38;;;;;;;4.05;1.15;;;;;;;;;;5053478;28;20029;-71
2021/05/08 01:48:06;;;;;;;2.17;0.60;;;;;;;;;;5053162;28;20508;-70
2021/05/08 01:50:33;;;;;;;3.15;0.50;;;;;;;;;;5043962;28;20033;-71
2021/05/08 01:53:00;;;;;;;3.47;0.90;;;;;;;;;;5038772;28;20025;-70
2021/05/08 01:55:29;;;;;;;2.35;0.95;;;;;;;;;;5054293;28;20122;-71
2021/05/08 01:57:57;;;;;;;2.40;0.63;;;;;;;;;;5054483;28;20052;-71
2021/05/08 02:00:34;;;;;;;2.15;0.65;;;;;;;;;;5055674;28;20424;-70
2021/05/08 02:03:02;;;;;;;3.47;0.82;;;;;;;;;;5054501;28;20417;-70
2021/05/08 02:05:30;;;;;;;1.92;0.43;;;;;;;;;;5038000;28;20029;-71
2021/05/08 02:08:03;;;;;;;2.60;0.80;;;;;;;;;;5038824;28;20048;-69
2021/05/08 02:10:30;;;;;;;3.50;0.90;;;;;;;;;;5054144;28;20027;-70
2021/05/08 02:12:58;;;;;;;5.45;2.15;;;;;;;;;;5053961;28;20032;-70
2021/05/08 02:15:25;;;;;;;6.38;2.50;;;;;;;;;;5054195;28;20428;-70
2021/05/08 02:17:52;;;;;;;6.28;4.82;;;;;;;;;;5055121;28;20549;-70
2021/05/08 02:20:23;;;;;;;3.83;1.40;;;;;;;;;;5055301;28;20039;-70
2021/05/08 02:22:50;;;;;;;2.10;1.02;;;;;;;;;;5053511;28;20025;-70
2021/05/08 02:25:17;;;;;;;3.00;0.80;;;;;;;;;;5055205;28;20027;-70
2021/05/08 02:27:45;;;;;;;2.53;0.80;;;;;;;;;;5053457;28;20482;-70
2021/05/08 02:30:13;;;;;;;2.30;0.65;;;;;;;;;;5033973;28;20033;-70
2021/05/08 02:32:40;;;;;;;3.03;0.82;;;;;;;;;;5035342;28;20021;-71
2021/05/08 02:35:09;;;;;;;4.47;1.00;;;;;;;;;;5055251;28;20072;-71
2021/05/08 02:37:36;;;;;;;6.43;1.20;;;;;;;;;;5054384;28;20456;-71
2021/05/08 02:40:14;;;;;;;2.25;0.70;;;;;;;;;;5053941;28;20128;-71
2021/05/08 02:42:41;;;;;;;4.82;1.13;;;;;;;;;;5048805;28;20032;-72
2021/05/08 02:45:09;;;;;;;3.45;0.90;;;;;;;;;;5051055;28;20055;-71
2021/05/08 02:47:38;;;;;;;2.08;0.60;;;;;;;;;;5053015;28;20036;-71
2021/05/08 02:50:05;;;;;;;3.58;0.60;;;;;;;;;;5054306;28;20112;-71
2021/05/08 02:52:32;;;;;;;5.30;1.42;;;;;;;;;;5054460;28;20382;-72
2021/05/08 02:54:59;;;;;;;5.25;1.00;;;;;;;;;;5052863;28;20032;-70
2021/05/08 02:57:27;;;;;;;2.85;1.33;;;;;;;;;;5052581;28;20389;-71
2021/05/08 02:59:54;;;;;;;5.05;1.80;;;;;;;;;;5041986;28;20030;-71
2021/05/08 03:02:21;;;;;;;1.77;0.60;;;;;;;;;;5034399;28;20029;-71
2021/05/08 03:04:48;;;;;;;6.80;1.02;;;;;;;;;;5052661;28;20116;-71
2021/05/08 03:07:15;;;;;;;4.25;1.20;;;;;;;;;;5041552;28;20397;-70
2021/05/08 03:09:44;;;;;;;1.98;1.20;;;;;;;;;;5050489;28;20025;-72
2021/05/08 03:12:12;;;;;;;3.13;1.30;;;;;;;;;;5054156;28;20428;-71
2021/05/08 03:14:39;;;;;;;3.25;0.77;;;;;;;;;;5051365;28;20013;-70
2021/05/08 03:17:07;;;;;;;5.25;1.10;;;;;;;;;;5053938;28;20029;-71
2021/05/08 03:19:34;;;;;;;2.90;0.95;;;;;;;;;;5041359;28;20029;-70
2021/05/08 03:22:01;;;;;;;3.65;0.98;;;;;;;;;;5033990;28;20079;-71
2021/05/08 03:24:28;;;;;;;3.67;1.10;;;;;;;;;;5048701;28;20087;-70
2021/05/08 03:26:55;;;;;;;4.30;0.75;;;;;;;;;;5053603;28;20029;-70
2021/05/08 03:29:22;;;;;;;3.53;1.10;;;;;;;;;;5052738;28;20028;-71
2021/05/08 03:31:49;;;;;;;2.63;0.90;;;;;;;;;;5053736;28;20032;-71
2021/05/08 03:34:16;;;;;;;4.63;1.02;;;;;;;;;;5040478;28;20417;-71
2021/05/08 03:36:44;;;;;;;7.03;1.38;;;;;;;;;;5051086;28;20036;-72
2021/05/08 03:39:11;;;;;;;5.93;1.27;;;;;;;;;;5040811;28;20119;-71
2021/05/08 03:41:38;;;;;;;1.90;0.90;;;;;;;;;;5032481;28;20501;-72
2021/05/08 03:44:05;;;;;;;1.95;0.73;;;;;;;;;;5045226;28;20024;-71
2021/05/08 03:46:32;;;;;;;3.65;0.80;;;;;;;;;;5053421;28;20036;-70
2021/05/08 03:48:59;;;;;;;3.63;0.90;;;;;;;;;;5048397;28;20025;-71
2021/05/08 03:51:26;;;;;;;3.13;0.80;;;;;;;;;;5051266;28;20075;-71
2021/05/08 03:53:55;;;;;;;3.22;0.95;;;;;;;;;;5050704;28;20025;-71
2021/05/08 03:56:22;;;;;;;3.28;1.35;;;;;;;;;;5044910;28;20383;-71
2021/05/08 03:58:49;;;;;;;2.28;0.93;;;;;;;;;;5041116;28;20429;-71
2021/05/08 04:01:17;;;;;;;2.90;0.80;;;;;;;;;;5051685;28;20402;-72
2021/05/08 04:03:44;;;;;;;3.05;1.38;;;;;;;;;;5051859;28;20385;-71
2021/05/08 04:06:11;;;;;;;2.88;0.90;;;;;;;;;;5053301;28;20055;-71
2021/05/08 04:08:38;;;;;;;3.33;0.88;;;;;;;;;;5051230;28;20067;-71
2021/05/08 04:11:05;;;;;;;2.33;1.05;;;;;;;;;;5051898;28;20025;-70
2021/05/08 04:13:32;;;;;;;1.98;0.63;;;;;;;;;;5051637;28;20017;-70
2021/05/08 04:16:00;;;;;;;3.63;1.23;;;;;;;;;;5051706;28;20100;-71
2021/05/08 04:18:27;;;;;;;1.92;0.93;;;;;;;;;;5050991;28;20082;-71
2021/05/08 04:20:57;;;;;;;2.92;1.10;;;;;;;;;;5052872;28;20036;-71
2021/05/08 04:23:24;;;;;;;2.80;0.75;;;;;;;;;;5051237;28;20162;-72
2021/05/08 04:25:51;;;;;;;3.53;1.10;;;;;;;;;;5052783;28;20021;-71
2021/05/08 04:28:18;;;;;;;1.63;0.95;;;;;;;;;;5051837;28;20040;-71
2021/05/08 04:30:45;;;;;;;4.35;1.02;;;;;;;;;;5050502;28;20482;-71
2021/05/08 04:33:12;;;;;;;3.55;0.70;;;;;;;;;;5049969;28;20029;-71
2021/05/08 04:35:39;;;;;;;6.10;3.08;;;;;;;;;;5051417;28;20131;-71
2021/05/08 04:38:09;;;;;;;6.28;2.75;;;;;;;;;;5052668;28;20045;-71
2021/05/08 04:40:36;;;;;;;2.85;1.33;;;;;;;;;;5051496;28;20619;-71
2021/05/08 04:43:03;;;;;;;1.58;0.93;;;;;;;;;;5052410;28;20086;-71
2021/05/08 04:45:30;;;;;;;3.85;0.70;;;;;;;;;;5052470;28;20021;-70
2021/05/08 04:47:58;;;;;;;3.03;1.10;;;;;;;;;;5049549;28;20159;-71
2021/05/08 04:50:26;;;;;;;2.15;1.05;;;;;;;;;;5051180;28;20025;-71
2021/05/08 04:52:53;;;;;;;2.88;0.90;;;;;;;;;;5051181;28;20118;-70
2021/05/08 04:55:21;;;;;;;3.05;1.58;;;;;;;;;;5052380;28;20032;-71
2021/05/08 04:57:48;;;;;;;1.67;1.00;;;;;;;;;;5052689;28;20433;-71
2021/05/08 05:00:16;;;;;;;2.65;1.08;;;;;;;;;;5052412;28;20083;-70
2021/05/08 05:02:47;;;;;;;4.00;1.15;;;;;;;;;;5051084;28;20056;-71
2021/05/08 05:05:15;;;;;;;6.85;1.00;;;;;;;;;;5052468;28;20025;-71
2021/05/08 05:07:45;;;;;;;7.00;1.42;;;;;;;;;;5051886;28;20385;-70
2021/05/08 05:10:13;;;;;;;3.05;0.90;;;;;;;;;;5052306;28;20025;-71
2021/05/08 05:12:40;;;;;;;5.95;1.10;;;;;;;;;;5036556;28;20032;-70
2021/05/08 05:15:08;;;;;;;2.67;0.93;;;;;;;;;;5052539;28;20021;-71
2021/05/08 05:17:36;;;;;;;2.97;1.00;;;;;;;;;;5051681;28;20056;-71
2021/05/08 05:20:06;;;;;;;2.47;1.00;;;;;;;;;;5052179;28;20053;-71
2021/05/08 05:22:33;;;;;;;2.53;1.15;;;;;;;;;;5055017;28;20044;-71
2021/05/08 05:25:00;;;;;;;4.65;1.30;;;;;;;;;;5055658;28;20033;-71
2021/05/08 05:27:27;;;;;;;2.13;1.00;;;;;;;;;;5055115;28;20548;-71
2021/05/08 05:29:54;;;;;;;1.77;0.90;;;;;;;;;;5040004;28;20101;-71
2021/05/08 05:32:21;;;;;;;2.20;0.98;;;;;;;;;;5036433;28;20113;-70
2021/05/08 05:34:48;;;;;;;4.88;1.40;;;;;;;;;;5053570;28;20049;-71
2021/05/08 05:37:16;;;;;;;5.75;1.70;;;;;;;;;;5055998;28;20082;-71
2021/05/08 05:39:43;;;;;;;4.40;1.27;;;;;;;;;;5055979;28;20108;-71
2021/05/08 05:42:11;;;;;;;2.33;0.95;;;;;;;;;;5055925;28;20021;-71
2021/05/08 05:44:38;;;;;;;1.98;1.00;;;;;;;;;;5054968;28;20481;-71
2021/05/08 05:47:07;;;;;;;3.22;1.15;;;;;;;;;;5055749;28;20166;-71
2021/05/08 05:49:34;;;;;;;4.15;1.10;;;;;;;;;;5042959;28;20462;-72
2021/05/08 05:52:01;;;;;;;4.25;1.17;;;;;;;;;;5035928;28;20538;-71
2021/05/08 05:54:28;;;;;;;3.67;1.25;;;;;;;;;;5051830;28;20028;-71
2021/05/08 05:56:55;;;;;;;3.08;1.23;;;;;;;;;;5055608;28;20032;-71
2021/05/08 05:59:23;;;;;;;2.08;0.90;;;;;;;;;;5053435;28;20033;-71
2021/05/08 06:01:50;;;;;;;2.40;1.00;;;;;;;;;;5054811;28;20021;-71
2021/05/08 06:04:17;;;;;;;1.70;0.80;;;;;;;;;;5055719;28;20389;-71
2021/05/08 06:06:44;;;;;;;4.05;1.20;;;;;;;;;;5055579;28;20025;-71
2021/05/08 06:09:11;;;;;;;4.18;1.13;;;;;;;;;;5054473;28;20044;-71
2021/05/08 06:11:38;;;;;;;3.83;0.85;;;;;;;;;;5053135;28;20112;-71
2021/05/08 06:14:05;;;;;;;2.70;1.00;;;;;;;;;;5054659;28;20556;-71
2021/05/08 06:16:32;;;;;;;3.92;0.90;;;;;;;;;;5055331;28;20135;-71
2021/05/08 06:19:00;;;;;;;2.55;0.60;;;;;;;;;;5054202;28;20021;-70
2021/05/08 06:21:28;;;;;;;1.83;0.80;;;;;;;;;;5055292;28;20025;-71
2021/05/08 06:23:55;;;;;;;2.05;0.60;;;;;;;;;;5050644;28;20052;-71
2021/05/08 06:26:22;;;;;;;1.25;0.70;;;;;;;;;;5047520;28;20108;-71
2021/05/08 06:28:49;;;;;;;3.75;0.85;;;;;;;;;;5045347;28;20029;-71
2021/05/08 06:31:16;;;;;;;2.10;1.17;;;;;;;;;;5053505;28;20029;-70
2021/05/08 06:33:43;;;;;;;3.20;0.60;;;;;;;;;;5054227;28;20045;-71
2021/05/08 06:36:10;;;;;;;0.95;0.52;;;;;;;;;;5054923;28;20047;-71
2021/05/08 06:38:37;;;;;;;2.05;0.60;;;;;;;;;;5053811;28;20024;-70
2021/05/08 06:41:04;;;;;;;1.73;0.70;;;;;;;;;;5054752;28;20078;-71
2021/05/08 06:43:31;;;;;;;2.08;0.70;;;;;;;;;;5055066;28;20036;-71
2021/05/08 06:45:58;;;;;;;3.90;0.47;;;;;;;;;;5054656;28;20100;-71
2021/05/08 06:48:26;;;;;;;1.05;0.38;;;;;;;;;;5054711;28;20028;-71
2021/05/08 06:50:53;;;;;;;1.98;0.50;;;;;;;;;;5053156;28;20025;-71
2021/05/08 06:53:20;;;;;;;3.08;0.60;;;;;;;;;;5054610;28;20036;-71
2021/05/08 06:55:47;;;;;;;2.25;1.08;;;;;;;;;;5053450;28;20021;-71
2021/05/08 06:58:14;;;;;;;1.02;0.50;;;;;;;;;;5053507;28;20025;-71
2021/05/08 07:00:41;;;;;;;1.17;0.55;;;;;;;;;;5054275;28;20481;-71
2021/05/08 07:03:09;;;;;;;1.85;0.47;;;;;;;;;;5053229;28;20028;-71
2021/05/08 07:05:36;;;;;;;1.40;0.60;;;;;;;;;;5038753;28;20025;-71
2021/05/08 07:08:05;;;;;;;2.00;0.73;;;;;;;;;;5051597;28;20031;-71
2021/05/08 07:10:32;;;;;;;1.27;0.50;;;;;;;;;;5052907;28;20025;-70
2021/05/08 07:12:59;;;;;;;3.17;0.70;;;;;;;;;;5054402;28;20458;-71
2021/05/08 07:15:26;;;;;;;1.80;0.90;;;;;;;;;;5052651;28;20100;-71
2021/05/08 07:18:03;;;;;;;3.08;0.70;;;;;;;;;;5050297;28;20043;-71
2021/05/08 07:20:31;;;;;;;2.47;1.20;;;;;;;;;;5035442;28;20083;-70
2021/05/08 07:22:58;;;;;;;3.53;2.60;;;;;;;;;;5035975;28;20591;-70
2021/05/08 07:25:25;;;;;;;2.35;1.05;;;;;;;;;;5053874;28;20025;-70
2021/05/08 07:27:52;;;;;;;4.80;2.70;;;;;;;;;;5052971;28;20132;-70
2021/05/08 07:30:19;;;;;;;4.32;1.98;;;;;;;;;;5033922;28;20022;-70
2021/05/08 07:32:46;;;;;;;1.65;0.90;;;;;;;;;;5034725;28;20018;-70
2021/05/08 07:35:14;;;;;;;2.75;0.88;;;;;;;;;;5053747;28;20072;-71
2021/05/08 07:37:41;;;;;;;2.60;0.98;;;;;;;;;;5052782;28;20040;-70
2021/05/08 07:40:08;;;;;;;1.40;0.60;;;;;;;;;;5052665;28;20029;-70
2021/05/08 07:42:35;;;;;;;2.88;0.82;;;;;;;;;;5033886;28;20020;-70
2021/05/08 07:45:03;;;;;;;2.08;0.93;;;;;;;;;;5052946;28;20056;-71
2021/05/08 07:47:30;;;;;;;2.85;1.13;;;;;;;;;;5053624;28;20025;-70
2021/05/08 07:49:57;;;;;;;2.90;1.02;;;;;;;;;;5053665;28;20029;-70
2021/05/08 07:52:24;;;;;;;2.35;1.00;;;;;;;;;;5053404;28;20413;-70
2021/05/08 07:54:51;;;;;;;2.13;0.98;;;;;;;;;;5051086;28;20032;-70
2021/05/08 07:57:18;;;;;;;2.72;1.30;;;;;;;;;;5053282;28;20033;-70
2021/05/08 07:59:45;;;;;;;3.53;1.30;;;;;;;;;;5050015;28;20043;-69
2021/05/08 08:02:13;;;;;;;2.30;0.98;;;;;;;;;;5053324;28;20470;-70
2021/05/08 08:04:40;;;;;;;2.13;1.17;;;;;;;;;;5036450;28;20033;-70
2021/05/08 08:07:07;;;;;;;1.92;1.25;;;;;;;;;;5033452;28;20112;-70
2021/05/08 08:09:34;;;;;;;4.30;1.90;;;;;;;;;;5048886;28;20371;-70
2021/05/08 08:12:01;;;;;;;4.25;1.90;;;;;;;;;;5051219;28;20291;-70
2021/05/08 08:14:29;;;;;;;4.20;1.73;;;;;;;;;;5048367;28;20048;-70
2021/05/08 08:16:56;;;;;;;2.67;1.52;;;;;;;;;;5052992;28;20029;-70
2021/05/08 08:19:23;;;;;;;3.72;1.90;;;;;;;;;;5042024;28;20366;-70
2021/05/08 08:21:50;;;;;;;4.32;1.88;;;;;;;;;;5032981;28;20028;-70
2021/05/08 08:24:17;;;;;;;4.20;2.78;;;;;;;;;;5049708;28;20056;-70
2021/05/08 08:26:44;;;;;;;6.97;2.80;;;;;;;;;;5051686;28;20025;-70
2021/05/08 08:29:11;;;;;;;5.03;2.50;;;;;;;;;;5051804;28;20025;-70
2021/05/08 08:31:38;;;;;;;3.88;2.53;;;;;;;;;;5052766;28;20017;-70
2021/05/08 08:34:05;;;;;;;5.28;2.70;;;;;;;;;;5052908;28;20041;-70
2021/05/08 08:36:33;;;;;;;4.68;2.75;;;;;;;;;;5051130;28;20048;-70
2021/05/08 08:39:00;;;;;;;4.50;2.72;;;;;;;;;;5043672;28;20025;-70
2021/05/08 08:41:27;;;;;;;5.10;2.85;;;;;;;;;;5033657;28;20036;-70
2021/05/08 08:43:54;;;;;;;6.65;3.17;;;;;;;;;;5042468;28;20499;-71
2021/05/08 08:46:21;;;;;;;4.53;2.83;;;;;;;;;;5052389;28;20021;-70
2021/05/08 08:48:49;;;;;;;5.07;2.35;;;;;;;;;;5051188;28;20033;-70
2021/05/08 08:51:16;;;;;;;5.85;2.90;;;;;;;;;;5052634;28;20028;-70
2021/05/08 08:53:43;;;;;;;5.72;2.00;;;;;;;;;;5050534;28;20040;-70
2021/05/08 08:56:11;;;;;;;5.15;3.17;;;;;;;;;;5045804;28;20022;-70
2021/05/08 08:58:42;;;;;;;5.55;2.63;;;;;;;;;;5041378;28;20029;-70
2021/05/08 09:01:09;;;;;;;5.55;2.85;;;;;;;;;;5052574;28;20082;-71
2021/05/08 09:03:37;;;;;;;6.30;2.90;;;;;;;;;;5052704;28;20108;-70
2021/05/08 09:06:04;;;;;;;4.88;3.28;;;;;;;;;;5050236;28;20617;-70
2021/05/08 09:08:31;;;;;;;8.52;4.30;;;;;;;;;;5051304;28;20033;-70
2021/05/08 09:11:36;;;;;;;5.32;3.58;;;;;;;;;;5052112;28;20112;-70
2021/05/08 09:14:03;;;;;;;;;;;;;;;;;;5029690;28;20539;-70
2021/05/08 09:16:30;;;;;;;5.90;2.90;;;;;;;;;;5030315;28;19913;-70
2021/05/08 09:18:57;;;;;;;6.05;2.95;;;;;;;;;;5034396;28;20037;-70
2021/05/08 09:21:29;;;;;;;6.95;3.35;;;;;;;;;;5032482;28;20076;-70
2021/05/08 09:24:00;;;;;;;5.35;2.95;;;;;;;;;;5043810;28;20032;-70
2021/05/08 09:26:37;;;;;;;5.03;2.47;;;;;;;;;;5052092;28;20477;-70
2021/05/08 09:29:04;;;;;;;6.72;3.05;;;;;;;;;;5052143;28;20478;-70
2021/05/08 09:31:32;;;;;;;8.32;3.55;;;;;;;;;;5052091;28;20025;-70
2021/05/08 09:33:59;;;;;;;4.90;2.15;;;;;;;;;;5037162;28;20041;-70
2021/05/08 09:36:26;;;;;;;6.28;2.85;;;;;;;;;;5031893;28;20061;-71
2021/05/08 09:38:53;;;;;;;8.13;3.20;;;;;;;;;;5042773;28;20029;-70
2021/05/08 09:41:20;;;;;;;5.60;2.70;;;;;;;;;;5044661;28;20433;-70
2021/05/08 09:43:47;;;;;;;3.72;2.40;;;;;;;;;;5042360;28;20025;-70
2021/05/08 09:46:30;;;;;;;4.95;2.35;;;;;;;;;;5052102;28;20021;-70
2021/05/08 09:49:16;;;;;;;4.78;2.28;;;;;;;;;;5048375;28;20025;-70
2021/05/08 09:51:43;;;;;;;8.45;3.05;;;;;;;;;;5052133;28;20029;-70
2021/05/08 09:54:10;;;;;;;4.97;2.80;;;;;;;;;;5050843;28;20048;-70
2021/05/08 09:56:55;;;;;;;7.53;2.92;;;;;;;;;;5051654;28;20043;-70
2021/05/08 09:59:23;;;;;;;6.07;2.55;;;;;;;;;;5048291;28;20051;-70
2021/05/08 10:02:05;;;;;;;9.02;3.60;;;;;;;;;;5051276;28;20469;-70
2021/05/08 10:04:44;;;;;;;6.25;2.50;;;;;;;;;;5051889;28;20025;-70
2021/05/08 10:07:14;;;;;;;7.13;3.13;;;;;;;;;;5054010;28;20029;-70
2021/05/08 10:09:42;;;;;;;4.13;2.47;;;;;;;;;;5054908;28;20079;-70
2021/05/08 10:12:10;;;;;;;4.45;2.35;;;;;;;;;;5056694;28;20025;-70
2021/05/08 10:14:38;;;;;;;4.32;2.63;;;;;;;;;;5054393;28;20152;-70
2021/05/08 10:17:06;;;;;;;4.68;3.42;;;;;;;;;;5055113;28;20112;-70
2021/05/08 10:19:36;;;;;;;6.40;2.63;;;;;;;;;;5053904;28;20031;-70
2021/05/08 10:22:04;;;;;;;4.13;2.25;;;;;;;;;;5053864;28;20037;-70
2021/05/08 10:24:31;;;;;;;6.40;2.88;;;;;;;;;;5054128;28;20087;-70
2021/05/08 10:26:58;;;;;;;4.90;2.80;;;;;;;;;;5054996;28;20505;-70
2021/05/08 10:29:27;;;;;;;6.03;3.08;;;;;;;;;;5055124;28;20381;-70
2021/05/08 10:31:59;;;;;;;5.35;3.42;;;;;;;;;;5053764;28;20054;-70
2021/05/08 10:34:33;;;;;;;5.65;3.13;;;;;;;;;;5052872;28;20049;-71
2021/05/08 10:37:07;;;;;;;5.75;3.38;;;;;;;;;;5051503;28;20120;-70
2021/05/08 10:39:57;;;;;;;4.97;3.08;;;;;;;;;;5051544;28;20041;-69
2021/05/08 10:42:37;;;;;;;7.78;3.30;;;;;;;;;;5052713;28;20021;-70
2021/05/08 10:45:16;;;;;;;5.25;3.10;;;;;;;;;;5054442;28;20060;-71
2021/05/08 10:47:55;;;;;;;4.72;3.00;;;;;;;;;;5052944;28;20108;-70
2021/05/08 10:50:23;;;;;;;7.35;3.53;;;;;;;;;;5034742;28;20047;-70
2021/05/08 10:53:02;;;;;;;6.97;3.55;;;;;;;;;;5035931;28;20033;-70
2021/05/08 10:55:49;;;;;;;6.68;3.58;;;;;;;;;;5052992;28;20397;-71
2021/05/08 10:58:21;;;;;;;5.40;3.45;;;;;;;;;;5053501;28;20090;-70
2021/05/08 11:00:49;;;;;;;8.25;3.33;;;;;;;;;;5054655;28;20047;-70
2021/05/08 11:03:17;;;;;;;5.82;3.40;;;;;;;;;;5054710;28;20103;-70
2021/05/08 11:05:54;;;;;;;12.35;4.18;;;;;;;;;;5054199;28;20436;-70
2021/05/08 11:08:27;;;;;;;5.43;3.42;;;;;;;;;;5054155;28;20059;-70
2021/05/08 11:10:57;;;;;;;6.87;3.27;;;;;;;;;;5054268;28;20042;-70
2021/05/08 11:13:25;;;;;;;5.00;3.15;;;;;;;;;;5050501;28;20035;-70
2021/05/08 11:15:53;;;;;;;7.55;3.38;;;;;;;;;;5052568;28;20070;-70
2021/05/08 11:18:37;;;;;;;5.10;2.85;;;;;;;;;;5052973;28;20622;-70
2021/05/08 11:21:04;;;;;;;6.95;4.05;;;;;;;;;;5034436;28;20029;-70
2021/05/08 11:23:43;;;;;;;5.20;3.33;;;;;;;;;;5041352;28;20032;-70
2021/05/08 11:26:34;;;;;;;6.40;3.30;;;;;;;;;;5046712;28;20386;-70
2021/05/08 11:29:20;;;;;;;7.88;3.05;;;;;;;;;;5044708;28;20036;-70
2021/05/08 11:31:49;;;;;;;6.07;2.78;;;;;;;;;;5053891;28;20029;-70
2021/05/08 11:34:19;;;;;;;6.15;2.80;;;;;;;;;;5040372;28;20506;-70
2021/05/08 11:36:47;;;;;;;4.22;2.70;;;;;;;;;;5041060;28;20033;-71
2021/05/08 11:39:14;;;;;;;9.07;3.28;;;;;;;;;;5052943;28;20040;-70
2021/05/08 11:41:42;;;;;;;7.53;3.40;;;;;;;;;;5053564;28;20032;-71
2021/05/08 11:44:10;;;;;;;7.15;3.33;;;;;;;;;;5053826;28;20021;-70
2021/05/08 11:46:37;;;;;;;7.78;3.28;;;;;;;;;;5053654;28;20490;-70
2021/05/08 11:49:04;;;;;;;9.10;3.50;;;;;;;;;;5047287;28;20017;-70
2021/05/08 11:51:31;;;;;;;10.07;3.13;;;;;;;;;;5053618;28;20128;-70
2021/05/08 11:54:08;;;;;;;6.57;3.53;;;;;;;;;;5053261;28;20085;-70
2021/05/08 11:56:36;;;;;;;9.25;3.33;;;;;;;;;;5053345;28;20037;-70
2021/05/08 11:59:04;;;;;;;8.13;3.60;;;;;;;;;;5047675;28;20022;-70
2021/05/08 12:01:31;;;;;;;6.57;3.78;;;;;;;;;;5052121;28;20107;-70
2021/05/08 12:04:00;;;;;;;5.00;2.72;;;;;;;;;;5050435;28;20074;-70
2021/05/08 12:06:27;;;;;;;5.68;2.65;;;;;;;;;;5053304;28;20132;-70
2021/05/08 12:08:57;;;;;;;5.63;3.10;;;;;;;;;;5053452;28;20025;-70
2021/05/08 12:11:25;;;;;;;5.53;3.35;;;;;;;;;;5053133;28;20021;-70
2021/05/08 12:13:52;;;;;;;5.45;2.97;;;;;;;;;;5053908;28;20025;-70
2021/05/08 12:16:19;;;;;;;5.47;2.90;;;;;;;;;;5052253;28;20641;-70
2021/05/08 12:18:46;;;;;;;4.13;2.90;;;;;;;;;;5051916;28;20052;-70
2021/05/08 12:21:14;;;;;;;5.25;2.67;;;;;;;;;;5053116;28;20032;-70
2021/05/08 12:23:42;;;;;;;4.03;3.22;;;;;;;;;;5052974;28;20409;-70
2021/05/08 12:26:17;;;;;;;6.38;3.38;;;;;;;;;;5051545;28;20021;-70
2021/05/08 12:28:47;;;;;;;4.95;3.08;;;;;;;;;;5051694;28;20051;-70
2021/05/08 12:31:30;;;;;;;5.43;3.47;;;;;;;;;;5049763;28;20029;-70
2021/05/08 12:33:58;;;;;;;5.88;3.15;;;;;;;;;;5041575;28;20053;-70
2021/05/08 12:36:30;;;;;;;5.80;3.63;;;;;;;;;;5048109;28;20401;-70
2021/05/08 12:39:17;;;;;;;7.28;3.40;;;;;;;;;;5047229;28;20034;-70
2021/05/08 12:41:50;;;;;;;7.35;3.60;;;;;;;;;;5037011;28;20029;-70
2021/05/08 12:44:17;;;;;;;7.05;3.65;;;;;;;;;;5048518;28;20029;-70
2021/05/08 12:46:54;;;;;;;6.07;3.45;;;;;;;;;;5052763;28;20025;-70
2021/05/08 12:49:21;;;;;;;5.65;3.65;;;;;;;;;;5052746;28;20025;-70
2021/05/08 12:51:48;;;;;;;7.68;3.75;;;;;;;;;;5051302;28;20037;-70
2021/05/08 12:54:24;;;;;;;9.40;3.10;;;;;;;;;;5049982;28;20032;-70
2021/05/08 12:56:53;;;;;;;6.13;3.15;;;;;;;;;;5052259;28;20029;-70
2021/05/08 12:59:32;;;;;;;6.93;3.60;;;;;;;;;;5052682;28;20029;-70
2021/05/08 13:02:15;;;;;;;5.68;3.30;;;;;;;;;;5052427;28;20047;-70
2021/05/08 13:04:43;;;;;;;5.07;3.03;;;;;;;;;;5052360;28;20025;-70
2021/05/08 13:07:20;;;;;;;7.85;3.33;;;;;;;;;;5047652;28;20021;-70
2021/05/08 13:09:48;;;;;;;6.97;4.18;;;;;;;;;;5051155;28;20061;-70
2021/05/08 13:12:15;;;;;;;7.07;4.60;;;;;;;;;;5052316;28;20028;-70
2021/05/08 13:14:42;;;;;;;10.05;5.40;;;;;;;;;;5042675;28;20036;-70
2021/05/08 13:17:10;;;;;;;7.18;4.53;;;;;;;;;;5050763;28;20044;-70
2021/05/08 13:19:37;;;;;;;8.40;4.82;;;;;;;;;;5051159;28;20017;-70
2021/05/08 13:22:04;;;;;;;6.35;3.40;;;;;;;;;;5050625;28;20095;-70
2021/05/08 13:24:33;;;;;;;5.97;3.22;;;;;;;;;;5042582;28;20059;-70
2021/05/08 13:27:00;;;;;;;6.10;3.67;;;;;;;;;;5050733;28;20433;-70
2021/05/08 13:29:28;;;;;;;6.95;3.33;;;;;;;;;;5051097;28;20389;-70
2021/05/08 13:31:55;;;;;;;6.85;3.20;;;;;;;;;;5050737;28;20025;-70
2021/05/08 13:34:22;;;;;;;4.28;2.08;;;;;;;;;;5052290;28;20563;-70
2021/05/08 13:36:49;;;;;;;5.78;2.03;;;;;;;;;;5051235;28;20040;-70
2021/05/08 13:39:16;;;;;;;4.45;2.25;;;;;;;;;;5046760;28;20554;-70
2021/05/08 13:41:43;;;;;;;4.00;2.15;;;;;;;;;;5053360;28;20024;-70
2021/05/08 13:44:10;;;;;;;4.57;2.25;;;;;;;;;;5056096;28;20017;-70
2021/05/08 13:46:38;;;;;;;3.22;2.15;;;;;;;;;;5055791;28;20029;-70
2021/05/08 13:49:05;;;;;;;4.90;3.28;;;;;;;;;;5055206;28;20369;-70
2021/05/08 13:51:32;;;;;;;5.72;3.33;;;;;;;;;;5056086;28;20057;-70
2021/05/08 13:53:59;;;;;;;4.28;3.20;;;;;;;;;;5056209;28;20095;-70
2021/05/08 13:56:27;;;;;;;6.82;2.95;;;;;;;;;;5045304;28;20045;-70
2021/05/08 13:58:54;;;;;;;5.90;3.40;;;;;;;;;;5046049;28;20029;-70
2021/05/08 14:01:25;;;;;;;5.70;3.55;;;;;;;;;;5055784;28;20428;-70
2021/05/08 14:03:52;;;;;;;6.93;4.45;;;;;;;;;;5056024;28;20033;-71
2021/05/08 14:06:19;;;;;;;7.88;4.05;;;;;;;;;;5055708;28;20043;-70
2021/05/08 14:08:46;;;;;;;6.35;3.97;;;;;;;;;;5054359;28;20037;-70
2021/05/08 14:11:13;;;;;;;6.00;3.95;;;;;;;;;;5055441;28;20021;-70
2021/05/08 14:13:40;;;;;;;7.72;3.40;;;;;;;;;;5055534;28;20394;-70
2021/05/08 14:16:08;;;;;;;8.43;3.80;;;;;;;;;;5054918;28;20040;-70
2021/05/08 14:18:35;;;;;;;7.38;4.22;;;;;;;;;;5053599;28;20056;-70
2021/05/08 14:21:02;;;;;;;5.78;4.28;;;;;;;;;;5052787;28;20064;-70
2021/05/08 14:23:29;;;;;;;5.95;3.78;;;;;;;;;;5053960;28;20051;-70
2021/05/08 14:25:56;;;;;;;6.15;3.95;;;;;;;;;;5055148;28;20647;-70
2021/05/08 14:28:23;;;;;;;5.70;3.47;;;;;;;;;;5055440;28;20035;-70
2021/05/08 14:30:50;;;;;;;3.90;2.65;;;;;;;;;;5055127;28;20419;-70
2021/05/08 14:33:17;;;;;;;7.70;3.35;;;;;;;;;;5051573;28;20021;-70
2021/05/08 14:35:44;;;;;;;5.53;2.95;;;;;;;;;;5053618;28;20029;-70
2021/05/08 14:38:12;;;;;;;3.03;2.60;;;;;;;;;;5055291;28;20541;-70
2021/05/08 14:40:39;;;;;;;3.97;2.75;;;;;;;;;;5054755;28;20522;-70
2021/05/08 14:43:06;;;;;;;4.93;2.90;;;;;;;;;;5053630;28;20926;-70
2021/05/08 14:45:33;;;;;;;5.22;2.63;;;;;;;;;;5054726;28;20159;-70
2021/05/08 14:48:00;;;;;;;4.20;2.60;;;;;;;;;;5055174;28;20086;-70
2021/05/08 14:50:27;;;;;;;4.32;3.10;;;;;;;;;;5054787;28;20021;-70